Terminal Aerodrome Forecast
Issued by NWS Cleveland, OH

Home | Current Version | Previous Version | Text Only | Print | Product List | Glossary On
Versions: 1 2 3 4 5 6 7 8 9 10 11 12 13 14 15 16
000
FTUS41 KCLE 062342
TAFMFD
TAF
KMFD 062342Z 0700/0724 22006KT P6SM BKN250
     FM071500 21010G20KT P6SM BKN250
     FM071700 21010G20KT P6SM OVC050
     FM071900 21012KT 4SM TSRA BR OVC025CB
     FM072100 23008KT 2SM -SHRA BR OVC015=

USA.gov is the U.S. government's official web portal to all federal, state and local government web resources and services.